sensor_id;sensor_type;location;lat;lon;timestamp;pressure;altitude;pressure_sealevel;temperature;humidity
76024;BME280;64719;52.124;6.226;2023-01-15T00:00:17;99895.25;;;6.87;94.76
76024;BME280;64719;52.124;6.226;2023-01-15T00:02:44;99901.34;;;6.82;94.97
76024;BME280;64719;52.124;6.226;2023-01-15T00:05:12;99901.81;;;6.79;94.96
76024;BME280;64719;52.124;6.226;2023-01-15T00:07:38;99904.72;;;6.78;94.70
76024;BME280;64719;52.124;6.226;2023-01-15T00:10:05;99901.44;;;6.76;94.90
76024;BME280;64719;52.124;6.226;2023-01-15T00:12:32;99903.81;;;6.84;93.77
76024;BME280;64719;52.124;6.226;2023-01-15T00:14:59;99897.78;;;6.70;94.53
76024;BME280;64719;52.124;6.226;2023-01-15T00:17:25;99903.19;;;6.70;94.39
76024;BME280;64719;52.124;6.226;2023-01-15T00:19:52;99909.38;;;6.71;94.17
76024;BME280;64719;52.124;6.226;2023-01-15T00:22:20;99901.81;;;6.79;93.61
76024;BME280;64719;52.124;6.226;2023-01-15T00:24:46;99906.69;;;6.71;93.92
76024;BME280;64719;52.124;6.226;2023-01-15T00:27:31;99911.28;;;6.70;93.78
76024;BME280;64719;52.124;6.226;2023-01-15T00:30:10;99912.66;;;6.61;94.04
76024;BME280;64719;52.124;6.226;2023-01-15T00:32:37;99912.75;;;6.66;93.78
76024;BME280;64719;52.124;6.226;2023-01-15T00:35:05;99914.31;;;6.74;93.01
76024;BME280;64719;52.124;6.226;2023-01-15T00:37:33;99908.91;;;6.74;92.00
76024;BME280;64719;52.124;6.226;2023-01-15T00:39:59;99910.59;;;6.75;92.06
76024;BME280;64719;52.124;6.226;2023-01-15T00:42:26;99917.59;;;6.64;92.95
76024;BME280;64719;52.124;6.226;2023-01-15T00:44:52;99918.59;;;6.63;92.76
76024;BME280;64719;52.124;6.226;2023-01-15T00:47:19;99909.84;;;6.68;92.12
76024;BME280;64719;52.124;6.226;2023-01-15T00:49:46;99911.66;;;6.56;93.13
76024;BME280;64719;52.124;6.226;2023-01-15T00:52:13;99906.28;;;6.56;93.53
76024;BME280;64719;52.124;6.226;2023-01-15T00:54:41;99912.28;;;6.58;93.19
76024;BME280;64719;52.124;6.226;2023-01-15T00:57:08;99897.97;;;6.57;93.38
76024;BME280;64719;52.124;6.226;2023-01-15T00:59:35;99908.66;;;6.64;93.29
76024;BME280;64719;52.124;6.226;2023-01-15T01:02:02;99915.69;;;6.65;93.59
76024;BME280;64719;52.124;6.226;2023-01-15T01:04:28;99916.06;;;6.68;92.76
76024;BME280;64719;52.124;6.226;2023-01-15T01:06:55;99914.66;;;6.66;92.91
76024;BME280;64719;52.124;6.226;2023-01-15T01:09:21;99930.59;;;6.67;92.97
76024;BME280;64719;52.124;6.226;2023-01-15T01:11:49;99925.47;;;6.77;92.56
76024;BME280;64719;52.124;6.226;2023-01-15T01:14:16;99918.91;;;6.73;92.66
76024;BME280;64719;52.124;6.226;2023-01-15T01:16:42;99921.25;;;6.81;91.86
76024;BME280;64719;52.124;6.226;2023-01-15T01:19:11;99936.84;;;6.79;92.88
76024;BME280;64719;52.124;6.226;2023-01-15T01:21:40;99926.53;;;6.76;92.27
76024;BME280;64719;52.124;6.226;2023-01-15T01:24:07;99921.13;;;6.76;92.11
76024;BME280;64719;52.124;6.226;2023-01-15T01:26:35;99922.50;;;6.67;92.91
76024;BME280;64719;52.124;6.226;2023-01-15T01:29:04;99936.22;;;6.66;92.71
76024;BME280;64719;52.124;6.226;2023-01-15T01:31:30;99924.28;;;6.73;92.53
76024;BME280;64719;52.124;6.226;2023-01-15T01:33:58;99928.84;;;6.73;92.72
76024;BME280;64719;52.124;6.226;2023-01-15T01:36:27;99940.69;;;6.72;92.60
76024;BME280;64719;52.124;6.226;2023-01-15T01:38:54;99931.41;;;6.68;92.40
76024;BME280;64719;52.124;6.226;2023-01-15T01:41:21;99936.56;;;6.69;92.03
76024;BME280;64719;52.124;6.226;2023-01-15T01:43:55;99936.78;;;6.68;91.82
76024;BME280;64719;52.124;6.226;2023-01-15T01:46:23;99928.63;;;6.74;91.44
76024;BME280;64719;52.124;6.226;2023-01-15T01:48:53;99931.84;;;6.65;91.53
76024;BME280;64719;52.124;6.226;2023-01-15T01:51:24;99933.41;;;6.72;91.45
76024;BME280;64719;52.124;6.226;2023-01-15T01:53:52;99933.28;;;6.67;91.06
76024;BME280;64719;52.124;6.226;2023-01-15T01:56:19;99932.22;;;6.68;90.63
76024;BME280;64719;52.124;6.226;2023-01-15T01:58:50;99927.00;;;6.73;90.31
76024;BME280;64719;52.124;6.226;2023-01-15T02:01:18;99937.81;;;6.55;91.43
76024;BME280;64719;52.124;6.226;2023-01-15T02:03:47;99940.06;;;6.58;91.38
76024;BME280;64719;52.124;6.226;2023-01-15T02:06:14;99934.91;;;6.57;91.32
76024;BME280;64719;52.124;6.226;2023-01-15T02:08:40;99942.00;;;6.51;90.82
76024;BME280;64719;52.124;6.226;2023-01-15T02:11:14;99936.97;;;6.55;90.53
76024;BME280;64719;52.124;6.226;2023-01-15T02:13:45;99945.06;;;6.55;90.38
76024;BME280;64719;52.124;6.226;2023-01-15T02:16:18;99941.69;;;6.59;90.18
76024;BME280;64719;52.124;6.226;2023-01-15T02:18:54;99941.53;;;6.54;90.23
76024;BME280;64719;52.124;6.226;2023-01-15T02:21:25;99934.75;;;6.52;89.88
76024;BME280;64719;52.124;6.226;2023-01-15T02:24:08;99933.78;;;6.46;90.58
76024;BME280;64719;52.124;6.226;2023-01-15T02:29:49;99931.41;;;6.38;90.82
76024;BME280;64719;52.124;6.226;2023-01-15T02:32:22;99937.25;;;6.35;91.17
76024;BME280;64719;52.124;6.226;2023-01-15T02:34:53;99935.66;;;6.46;90.43
76024;BME280;64719;52.124;6.226;2023-01-15T02:37:25;99928.19;;;6.48;89.93
76024;BME280;64719;52.124;6.226;2023-01-15T02:39:55;99939.09;;;6.35;90.43
76024;BME280;64719;52.124;6.226;2023-01-15T02:42:27;99938.66;;;6.38;90.39
76024;BME280;64719;52.124;6.226;2023-01-15T02:44:57;99928.56;;;6.33;89.51
76024;BME280;64719;52.124;6.226;2023-01-15T02:47:28;99923.53;;;6.37;89.04
76024;BME280;64719;52.124;6.226;2023-01-15T02:49:58;99922.34;;;6.33;89.05
76024;BME280;64719;52.124;6.226;2023-01-15T02:52:28;99928.41;;;6.28;89.91
76024;BME280;64719;52.124;6.226;2023-01-15T02:54:59;99917.81;;;6.15;90.32
76024;BME280;64719;52.124;6.226;2023-01-15T02:57:29;99925.59;;;6.05;90.59
76024;BME280;64719;52.124;6.226;2023-01-15T02:59:59;99924.16;;;6.03;90.92
76024;BME280;64719;52.124;6.226;2023-01-15T03:02:30;99919.75;;;6.08;90.54
76024;BME280;64719;52.124;6.226;2023-01-15T03:05:01;99916.69;;;6.05;90.86
76024;BME280;64719;52.124;6.226;2023-01-15T03:07:35;99921.91;;;6.00;91.37
76024;BME280;64719;52.124;6.226;2023-01-15T03:10:04;99924.75;;;6.05;91.13
76024;BME280;64719;52.124;6.226;2023-01-15T03:12:39;99909.94;;;6.14;90.88
76024;BME280;64719;52.124;6.226;2023-01-15T03:15:31;99905.47;;;6.08;91.13
76024;BME280;64719;52.124;6.226;2023-01-15T03:18:21;99901.50;;;6.10;90.64
76024;BME280;64719;52.124;6.226;2023-01-15T03:20:54;99892.69;;;6.03;91.14
76024;BME280;64719;52.124;6.226;2023-01-15T03:23:23;99901.72;;;6.09;90.60
76024;BME280;64719;52.124;6.226;2023-01-15T03:25:52;99901.88;;;6.14;90.85
76024;BME280;64719;52.124;6.226;2023-01-15T03:28:23;99895.41;;;6.15;90.06
76024;BME280;64719;52.124;6.226;2023-01-15T03:30:51;99888.25;;;6.09;90.08
76024;BME280;64719;52.124;6.226;2023-01-15T03:33:18;99899.84;;;6.09;90.46
76024;BME280;64719;52.124;6.226;2023-01-15T03:35:47;99897.44;;;6.01;91.01
76024;BME280;64719;52.124;6.226;2023-01-15T03:38:16;99914.44;;;6.02;90.42
76024;BME280;64719;52.124;6.226;2023-01-15T03:43:18;99899.63;;;5.93;90.98
76024;BME280;64719;52.124;6.226;2023-01-15T03:46:08;99898.13;;;5.97;90.52
76024;BME280;64719;52.124;6.226;2023-01-15T03:48:39;99895.75;;;5.89;91.35
76024;BME280;64719;52.124;6.226;2023-01-15T03:51:12;99899.47;;;5.88;91.44
76024;BME280;64719;52.124;6.226;2023-01-15T03:53:41;99899.63;;;5.93;91.55
76024;BME280;64719;52.124;6.226;2023-01-15T03:56:14;99896.66;;;6.01;90.78
76024;BME280;64719;52.124;6.226;2023-01-15T03:58:46;99897.78;;;5.93;90.79
76024;BME280;64719;52.124;6.226;2023-01-15T04:01:18;99897.41;;;5.90;91.30
76024;BME280;64719;52.124;6.226;2023-01-15T04:03:48;99889.03;;;5.98;90.24
76024;BME280;64719;52.124;6.226;2023-01-15T04:06:16;99897.00;;;5.86;90.94
76024;BME280;64719;52.124;6.226;2023-01-15T04:08:45;99895.59;;;6.02;90.27
76024;BME280;64719;52.124;6.226;2023-01-15T04:11:12;99881.06;;;6.03;90.21
76024;BME280;64719;52.124;6.226;2023-01-15T04:13:46;99889.59;;;6.00;90.49
76024;BME280;64719;52.124;6.226;2023-01-15T04:16:25;99889.47;;;5.95;90.48
76024;BME280;64719;52.124;6.226;2023-01-15T04:18:52;99887.38;;;5.97;90.14
76024;BME280;64719;52.124;6.226;2023-01-15T04:21:19;99886.19;;;5.93;90.04
76024;BME280;64719;52.124;6.226;2023-01-15T04:23:46;99891.03;;;6.02;89.47
76024;BME280;64719;52.124;6.226;2023-01-15T04:26:13;99889.59;;;6.00;89.56
76024;BME280;64719;52.124;6.226;2023-01-15T04:28:39;99888.72;;;5.88;90.13
76024;BME280;64719;52.124;6.226;2023-01-15T04:31:06;99894.75;;;6.01;89.32
76024;BME280;64719;52.124;6.226;2023-01-15T04:33:34;99893.34;;;5.99;89.50
76024;BME280;64719;52.124;6.226;2023-01-15T04:36:02;99888.81;;;5.99;89.50
76024;BME280;64719;52.124;6.226;2023-01-15T04:38:28;99890.16;;;5.90;90.34
76024;BME280;64719;52.124;6.226;2023-01-15T04:40:59;99903.28;;;5.98;90.20
76024;BME280;64719;52.124;6.226;2023-01-15T04:43:43;99894.25;;;6.11;88.96
76024;BME280;64719;52.124;6.226;2023-01-15T04:46:27;99903.50;;;6.15;88.67
76024;BME280;64719;52.124;6.226;2023-01-15T04:48:55;99891.69;;;6.16;88.56
76024;BME280;64719;52.124;6.226;2023-01-15T04:51:22;99896.09;;;6.10;88.76
76024;BME280;64719;52.124;6.226;2023-01-15T04:53:48;99889.38;;;6.01;89.11
76024;BME280;64719;52.124;6.226;2023-01-15T04:56:15;99885.28;;;5.99;88.97
76024;BME280;64719;52.124;6.226;2023-01-15T04:58:41;99885.50;;;5.97;89.34
76024;BME280;64719;52.124;6.226;2023-01-15T05:01:10;99888.81;;;5.99;88.87
76024;BME280;64719;52.124;6.226;2023-01-15T05:03:36;99879.50;;;5.95;88.59
76024;BME280;64719;52.124;6.226;2023-01-15T05:06:05;99892.22;;;5.88;88.90
76024;BME280;64719;52.124;6.226;2023-01-15T05:08:31;99883.78;;;5.85;88.83
76024;BME280;64719;52.124;6.226;2023-01-15T05:11:00;99899.94;;;5.85;88.90
76024;BME280;64719;52.124;6.226;2023-01-15T05:13:28;99901.63;;;5.79;88.80
76024;BME280;64719;52.124;6.226;2023-01-15T05:15:56;99891.28;;;5.58;89.24
76024;BME280;64719;52.124;6.226;2023-01-15T05:18:23;99877.09;;;5.51;89.96
76024;BME280;64719;52.124;6.226;2023-01-15T05:20:49;99886.97;;;5.75;88.82
76024;BME280;64719;52.124;6.226;2023-01-15T05:23:17;99901.25;;;5.76;88.82
76024;BME280;64719;52.124;6.226;2023-01-15T05:25:44;99884.22;;;5.82;88.00
76024;BME280;64719;52.124;6.226;2023-01-15T05:28:10;99888.53;;;5.64;88.42
76024;BME280;64719;52.124;6.226;2023-01-15T05:30:37;99890.84;;;5.61;89.05
76024;BME280;64719;52.124;6.226;2023-01-15T05:33:03;99898.19;;;5.72;88.43
76024;BME280;64719;52.124;6.226;2023-01-15T05:35:30;99878.97;;;5.68;88.40
76024;BME280;64719;52.124;6.226;2023-01-15T05:37:57;99882.34;;;5.64;88.87
76024;BME280;64719;52.124;6.226;2023-01-15T05:40:24;99869.72;;;5.64;88.94
76024;BME280;64719;52.124;6.226;2023-01-15T05:42:52;99876.56;;;5.60;88.85
76024;BME280;64719;52.124;6.226;2023-01-15T05:45:19;99873.59;;;5.68;88.34
76024;BME280;64719;52.124;6.226;2023-01-15T05:47:45;99876.22;;;5.57;88.71
76024;BME280;64719;52.124;6.226;2023-01-15T05:50:12;99860.28;;;5.55;88.67
76024;BME280;64719;52.124;6.226;2023-01-15T05:52:38;99869.78;;;5.58;88.95
76024;BME280;64719;52.124;6.226;2023-01-15T05:55:05;99874.88;;;5.66;88.42
76024;BME280;64719;52.124;6.226;2023-01-15T05:57:33;99878.22;;;5.80;87.36
76024;BME280;64719;52.124;6.226;2023-01-15T06:00:00;99877.69;;;5.71;88.24
76024;BME280;64719;52.124;6.226;2023-01-15T06:02:26;99873.53;;;5.75;87.87
76024;BME280;64719;52.124;6.226;2023-01-15T06:04:53;99884.13;;;5.70;88.08
76024;BME280;64719;52.124;6.226;2023-01-15T06:07:19;99880.91;;;5.80;87.05
76024;BME280;64719;52.124;6.226;2023-01-15T06:09:46;99877.09;;;5.69;88.06
76024;BME280;64719;52.124;6.226;2023-01-15T06:12:12;99878.69;;;5.58;88.02
76024;BME280;64719;52.124;6.226;2023-01-15T06:14:40;99877.69;;;5.71;87.46
76024;BME280;64719;52.124;6.226;2023-01-15T06:17:07;99883.50;;;5.68;87.49
76024;BME280;64719;52.124;6.226;2023-01-15T06:19:33;99878.97;;;5.68;87.70
76024;BME280;64719;52.124;6.226;2023-01-15T06:22:00;99879.56;;;5.71;87.64
76024;BME280;64719;52.124;6.226;2023-01-15T06:24:27;99874.19;;;5.71;87.20
76024;BME280;64719;52.124;6.226;2023-01-15T06:26:54;99885.03;;;5.64;87.46
76024;BME280;64719;52.124;6.226;2023-01-15T06:29:20;99872.41;;;5.64;87.61
76024;BME280;64719;52.124;6.226;2023-01-15T06:31:48;99867.69;;;5.60;87.08
76024;BME280;64719;52.124;6.226;2023-01-15T06:34:15;99871.06;;;5.74;86.73
76024;BME280;64719;52.124;6.226;2023-01-15T06:36:41;99881.28;;;5.65;87.06
76024;BME280;64719;52.124;6.226;2023-01-15T06:39:08;99878.44;;;5.60;87.39
76024;BME280;64719;52.124;6.226;2023-01-15T06:41:34;99878.34;;;5.48;87.72
76024;BME280;64719;52.124;6.226;2023-01-15T06:44:19;99878.00;;;5.45;87.93
76024;BME280;64719;52.124;6.226;2023-01-15T06:47:12;99877.75;;;5.46;87.66
76024;BME280;64719;52.124;6.226;2023-01-15T06:49:49;99875.75;;;5.42;88.09
76024;BME280;64719;52.124;6.226;2023-01-15T06:52:16;99878.47;;;5.35;88.40
76024;BME280;64719;52.124;6.226;2023-01-15T06:54:42;99876.53;;;5.42;87.88
76024;BME280;64719;52.124;6.226;2023-01-15T06:57:09;99874.69;;;5.43;86.89
76024;BME280;64719;52.124;6.226;2023-01-15T06:59:35;99885.38;;;5.49;86.34
76024;BME280;64719;52.124;6.226;2023-01-15T07:02:03;99883.16;;;5.46;86.49
76024;BME280;64719;52.124;6.226;2023-01-15T07:04:30;99888.81;;;5.38;86.93
76024;BME280;64719;52.124;6.226;2023-01-15T07:06:57;99876.25;;;5.50;86.48
76024;BME280;64719;52.124;6.226;2023-01-15T07:09:23;99882.25;;;5.52;85.81
76024;BME280;64719;52.124;6.226;2023-01-15T07:11:50;99885.75;;;5.53;85.55
76024;BME280;64719;52.124;6.226;2023-01-15T07:14:17;99882.63;;;5.56;85.42
76024;BME280;64719;52.124;6.226;2023-01-15T07:16:44;99888.53;;;5.46;84.98
76024;BME280;64719;52.124;6.226;2023-01-15T07:19:12;99886.81;;;5.52;85.19
76024;BME280;64719;52.124;6.226;2023-01-15T07:21:39;99898.06;;;5.42;85.36
76024;BME280;64719;52.124;6.226;2023-01-15T07:24:06;99884.94;;;5.52;85.17
76024;BME280;64719;52.124;6.226;2023-01-15T07:26:33;99876.84;;;5.34;86.43
76024;BME280;64719;52.124;6.226;2023-01-15T07:29:00;99883.16;;;5.22;87.20
76024;BME280;64719;52.124;6.226;2023-01-15T07:31:27;99902.25;;;5.14;88.00
76024;BME280;64719;52.124;6.226;2023-01-15T07:33:54;99890.56;;;5.26;86.85
76024;BME280;64719;52.124;6.226;2023-01-15T07:36:22;99893.88;;;5.04;87.76
76024;BME280;64719;52.124;6.226;2023-01-15T07:38:49;99903.53;;;5.11;88.23
76024;BME280;64719;52.124;6.226;2023-01-15T07:41:16;99902.53;;;5.06;87.96
76024;BME280;64719;52.124;6.226;2023-01-15T07:44:00;99896.69;;;5.09;88.58
76024;BME280;64719;52.124;6.226;2023-01-15T07:46:44;99904.63;;;5.04;88.46
76024;BME280;64719;52.124;6.226;2023-01-15T07:49:28;99898.81;;;5.07;88.74
76024;BME280;64719;52.124;6.226;2023-01-15T07:52:16;99882.09;;;4.98;88.98
76024;BME280;64719;52.124;6.226;2023-01-15T07:54:43;99887.22;;;5.06;88.39
76024;BME280;64719;52.124;6.226;2023-01-15T07:57:10;99887.16;;;4.88;89.26
76024;BME280;64719;52.124;6.226;2023-01-15T07:59:37;99890.16;;;4.98;89.45
76024;BME280;64719;52.124;6.226;2023-01-15T08:02:04;99896.13;;;5.07;88.45
76024;BME280;64719;52.124;6.226;2023-01-15T08:04:30;99900.84;;;5.11;88.08
76024;BME280;64719;52.124;6.226;2023-01-15T08:06:58;99893.97;;;5.15;87.54
76024;BME280;64719;52.124;6.226;2023-01-15T08:09:27;99901.09;;;5.03;88.10
76024;BME280;64719;52.124;6.226;2023-01-15T08:11:54;99894.91;;;5.03;87.97
76024;BME280;64719;52.124;6.226;2023-01-15T08:14:38;99892.16;;;5.09;87.40
76024;BME280;64719;52.124;6.226;2023-01-15T08:17:22;99895.78;;;5.21;86.71
76024;BME280;64719;52.124;6.226;2023-01-15T08:19:49;99896.56;;;5.04;87.74
76024;BME280;64719;52.124;6.226;2023-01-15T08:22:15;99881.84;;;5.06;87.07
76024;BME280;64719;52.124;6.226;2023-01-15T08:24:43;99886.28;;;5.19;86.64
76024;BME280;64719;52.124;6.226;2023-01-15T08:27:11;99899.09;;;5.23;87.00
76024;BME280;64719;52.124;6.226;2023-01-15T08:29:38;99894.00;;;5.33;85.86
76024;BME280;64719;52.124;6.226;2023-01-15T08:32:04;99888.13;;;5.43;85.81
76024;BME280;64719;52.124;6.226;2023-01-15T08:34:31;99884.38;;;5.44;85.94
76024;BME280;64719;52.124;6.226;2023-01-15T08:36:57;99882.47;;;5.51;85.41
76024;BME280;64719;52.124;6.226;2023-01-15T08:39:25;99874.31;;;5.57;85.13
76024;BME280;64719;52.124;6.226;2023-01-15T08:41:54;99865.78;;;5.60;84.77
76024;BME280;64719;52.124;6.226;2023-01-15T08:44:21;99882.56;;;5.62;84.21
76024;BME280;64719;52.124;6.226;2023-01-15T08:46:48;99883.59;;;5.61;84.20
76024;BME280;64719;52.124;6.226;2023-01-15T08:49:16;99883.50;;;5.68;84.24
76024;BME280;64719;52.124;6.226;2023-01-15T08:51:43;99890.47;;;5.76;84.00
76024;BME280;64719;52.124;6.226;2023-01-15T08:54:11;99884.41;;;5.80;83.07
76024;BME280;64719;52.124;6.226;2023-01-15T08:56:38;99892.06;;;5.83;83.10
76024;BME280;64719;52.124;6.226;2023-01-15T08:59:06;99892.84;;;5.90;81.77
76024;BME280;64719;52.124;6.226;2023-01-15T09:01:33;99896.72;;;5.94;82.26
76024;BME280;64719;52.124;6.226;2023-01-15T09:04:00;99890.72;;;5.92;82.40
76024;BME280;64719;52.124;6.226;2023-01-15T09:06:27;99880.72;;;5.99;82.34
76024;BME280;64719;52.124;6.226;2023-01-15T09:08:53;99885.19;;;6.05;81.66
76024;BME280;64719;52.124;6.226;2023-01-15T09:11:20;99882.75;;;6.04;81.61
76024;BME280;64719;52.124;6.226;2023-01-15T09:13:46;99877.69;;;6.07;81.58
76024;BME280;64719;52.124;6.226;2023-01-15T09:16:17;99888.63;;;6.12;81.64
76024;BME280;64719;52.124;6.226;2023-01-15T09:18:43;99872.97;;;6.21;80.04
76024;BME280;64719;52.124;6.226;2023-01-15T09:21:10;99867.47;;;6.16;80.76
76024;BME280;64719;52.124;6.226;2023-01-15T09:23:37;99863.03;;;6.21;79.99
76024;BME280;64719;52.124;6.226;2023-01-15T09:26:05;99861.97;;;6.22;80.27
76024;BME280;64719;52.124;6.226;2023-01-15T09:28:33;99870.06;;;6.22;80.29
76024;BME280;64719;52.124;6.226;2023-01-15T09:30:59;99873.72;;;6.28;78.98
76024;BME280;64719;52.124;6.226;2023-01-15T09:33:28;99885.81;;;6.37;79.53
76024;BME280;64719;52.124;6.226;2023-01-15T09:35:54;99878.91;;;6.41;79.10
76024;BME280;64719;52.124;6.226;2023-01-15T09:38:21;99892.78;;;6.44;78.43
76024;BME280;64719;52.124;6.226;2023-01-15T09:40:49;99879.97;;;6.40;78.36
76024;BME280;64719;52.124;6.226;2023-01-15T09:43:36;99879.56;;;6.54;78.45
76024;BME280;64719;52.124;6.226;2023-01-15T09:46:10;99890.28;;;6.72;77.59
76024;BME280;64719;52.124;6.226;2023-01-15T09:48:47;99888.56;;;6.78;77.71
76024;BME280;64719;52.124;6.226;2023-01-15T09:51:23;99900.72;;;6.69;78.28
76024;BME280;64719;52.124;6.226;2023-01-15T09:54:01;99888.94;;;6.52;79.20
76024;BME280;64719;52.124;6.226;2023-01-15T09:56:33;99887.94;;;6.76;78.12
76024;BME280;64719;52.124;6.226;2023-01-15T09:59:05;99900.81;;;7.03;77.62
76024;BME280;64719;52.124;6.226;2023-01-15T10:01:35;99902.41;;;9.37;70.21
76024;BME280;64719;52.124;6.226;2023-01-15T10:04:08;99904.38;;;10.34;67.46
76024;BME280;64719;52.124;6.226;2023-01-15T10:06:43;99907.56;;;11.69;65.37
76024;BME280;64719;52.124;6.226;2023-01-15T10:09:13;99903.22;;;12.15;62.15
76024;BME280;64719;52.124;6.226;2023-01-15T10:11:44;99895.41;;;10.34;63.58
76024;BME280;64719;52.124;6.226;2023-01-15T10:14:40;99906.94;;;8.42;68.75
76024;BME280;64719;52.124;6.226;2023-01-15T10:17:24;99908.69;;;9.76;67.71
76024;BME280;64719;52.124;6.226;2023-01-15T10:19:54;99921.06;;;10.48;64.94
76024;BME280;64719;52.124;6.226;2023-01-15T10:22:43;99901.66;;;10.82;64.41
76024;BME280;64719;52.124;6.226;2023-01-15T10:25:16;99898.81;;;11.62;64.96
76024;BME280;64719;52.124;6.226;2023-01-15T10:27:46;99900.09;;;11.55;62.14
76024;BME280;64719;52.124;6.226;2023-01-15T10:30:22;99916.09;;;10.66;62.05
76024;BME280;64719;52.124;6.226;2023-01-15T10:32:54;99891.59;;;11.14;61.37
76024;BME280;64719;52.124;6.226;2023-01-15T10:35:31;99891.63;;;11.51;60.56
76024;BME280;64719;52.124;6.226;2023-01-15T10:38:08;99901.38;;;12.30;60.23
76024;BME280;64719;52.124;6.226;2023-01-15T10:40:48;99904.56;;;10.76;62.31
76024;BME280;64719;52.124;6.226;2023-01-15T10:43:21;99912.84;;;10.64;62.78
76024;BME280;64719;52.124;6.226;2023-01-15T10:45:52;99912.25;;;9.43;66.62
76024;BME280;64719;52.124;6.226;2023-01-15T10:48:24;99913.47;;;9.52;65.28
76024;BME280;64719;52.124;6.226;2023-01-15T10:50:54;99911.78;;;9.29;65.36
76024;BME280;64719;52.124;6.226;2023-01-15T10:53:28;99924.75;;;8.83;69.08
76024;BME280;64719;52.124;6.226;2023-01-15T10:55:57;99904.75;;;8.28;69.72
76024;BME280;64719;52.124;6.226;2023-01-15T10:58:32;99904.69;;;7.88;70.80
76024;BME280;64719;52.124;6.226;2023-01-15T11:01:03;99923.16;;;7.68;72.20
76024;BME280;64719;52.124;6.226;2023-01-15T11:03:35;99893.91;;;7.88;72.05
76024;BME280;64719;52.124;6.226;2023-01-15T11:06:03;99912.72;;;8.34;70.97
76024;BME280;64719;52.124;6.226;2023-01-15T11:08:33;99905.19;;;7.85;70.45
76024;BME280;64719;52.124;6.226;2023-01-15T11:11:12;99890.94;;;8.01;71.66
76024;BME280;64719;52.124;6.226;2023-01-15T11:13:51;99907.97;;;8.41;69.93
76024;BME280;64719;52.124;6.226;2023-01-15T11:16:36;99892.84;;;8.40;68.58
76024;BME280;64719;52.124;6.226;2023-01-15T11:19:26;99884.44;;;8.14;69.43
76024;BME280;64719;52.124;6.226;2023-01-15T11:22:10;99901.25;;;8.04;70.62
76024;BME280;64719;52.124;6.226;2023-01-15T11:24:45;99899.16;;;8.06;70.51
76024;BME280;64719;52.124;6.226;2023-01-15T11:27:15;99886.84;;;7.87;70.72
76024;BME280;64719;52.124;6.226;2023-01-15T11:29:44;99880.34;;;8.00;71.00
76024;BME280;64719;52.124;6.226;2023-01-15T11:32:20;99892.88;;;8.17;70.19
76024;BME280;64719;52.124;6.226;2023-01-15T11:34:52;99904.56;;;8.06;69.82
76024;BME280;64719;52.124;6.226;2023-01-15T11:37:21;99896.41;;;8.18;69.99
76024;BME280;64719;52.124;6.226;2023-01-15T11:39:52;99909.88;;;8.41;69.69
76024;BME280;64719;52.124;6.226;2023-01-15T11:42:19;99903.13;;;8.04;69.74
76024;BME280;64719;52.124;6.226;2023-01-15T11:45:13;99903.13;;;8.04;70.45
76024;BME280;64719;52.124;6.226;2023-01-15T11:47:57;99903.38;;;8.02;70.64
76024;BME280;64719;52.124;6.226;2023-01-15T11:50:49;99927.44;;;8.15;69.93
76024;BME280;64719;52.124;6.226;2023-01-15T11:53:20;99928.19;;;7.88;71.14
76024;BME280;64719;52.124;6.226;2023-01-15T11:55:50;99912.13;;;7.70;71.56
76024;BME280;64719;52.124;6.226;2023-01-15T11:58:17;99892.25;;;7.64;72.77
76024;BME280;64719;52.124;6.226;2023-01-15T12:00:48;99902.34;;;7.69;72.38
76024;BME280;64719;52.124;6.226;2023-01-15T12:03:18;99896.56;;;8.00;72.13
76024;BME280;64719;52.124;6.226;2023-01-15T12:05:52;99899.88;;;7.90;71.86
76024;BME280;64719;52.124;6.226;2023-01-15T12:08:25;99914.63;;;8.22;71.59
76024;BME280;64719;52.124;6.226;2023-01-15T12:11:01;99910.59;;;8.64;70.44
76024;BME280;64719;52.124;6.226;2023-01-15T12:13:38;99927.59;;;7.97;72.19
76024;BME280;64719;52.124;6.226;2023-01-15T12:16:14;99927.34;;;7.64;74.73
76024;BME280;64719;52.124;6.226;2023-01-15T12:18:51;99955.44;;;7.75;78.28
76024;BME280;64719;52.124;6.226;2023-01-15T12:21:41;99943.06;;;7.21;80.09
76024;BME280;64719;52.124;6.226;2023-01-15T12:24:36;99939.66;;;6.84;82.45
76024;BME280;64719;52.124;6.226;2023-01-15T12:27:14;99941.22;;;6.92;83.62
76024;BME280;64719;52.124;6.226;2023-01-15T12:29:45;99941.34;;;6.85;83.38
76024;BME280;64719;52.124;6.226;2023-01-15T12:32:16;99929.88;;;7.13;82.91
76024;BME280;64719;52.124;6.226;2023-01-15T12:34:47;99928.50;;;7.22;82.14
76024;BME280;64719;52.124;6.226;2023-01-15T12:37:18;99918.91;;;7.26;82.17
76024;BME280;64719;52.124;6.226;2023-01-15T12:39:51;99917.13;;;7.31;81.34
76024;BME280;64719;52.124;6.226;2023-01-15T12:42:21;99905.28;;;7.32;80.88
76024;BME280;64719;52.124;6.226;2023-01-15T12:45:09;99903.66;;;7.20;80.47
76024;BME280;64719;52.124;6.226;2023-01-15T12:47:42;99898.72;;;7.17;80.64
76024;BME280;64719;52.124;6.226;2023-01-15T12:50:22;99891.88;;;7.14;81.00
76024;BME280;64719;52.124;6.226;2023-01-15T12:52:56;99892.34;;;7.11;80.47
76024;BME280;64719;52.124;6.226;2023-01-15T12:55:29;99907.84;;;7.04;82.42
76024;BME280;64719;52.124;6.226;2023-01-15T12:58:00;99905.19;;;6.75;83.75
76024;BME280;64719;52.124;6.226;2023-01-15T13:00:29;99885.31;;;6.58;84.34
76024;BME280;64719;52.124;6.226;2023-01-15T13:03:14;99918.50;;;6.58;85.14
76024;BME280;64719;52.124;6.226;2023-01-15T13:05:46;99909.13;;;6.61;86.03
76024;BME280;64719;52.124;6.226;2023-01-15T13:08:19;99911.72;;;6.67;85.90
76024;BME280;64719;52.124;6.226;2023-01-15T13:10:50;99918.50;;;6.58;85.90
76024;BME280;64719;52.124;6.226;2023-01-15T13:13:18;99907.72;;;6.40;86.80
76024;BME280;64719;52.124;6.226;2023-01-15T13:15:58;99913.09;;;6.11;88.49
76024;BME280;64719;52.124;6.226;2023-01-15T13:18:34;99905.97;;;5.98;89.66
76024;BME280;64719;52.124;6.226;2023-01-15T13:21:09;99925.28;;;5.95;90.73
76024;BME280;64719;52.124;6.226;2023-01-15T13:23:50;99928.75;;;5.84;91.42
76024;BME280;64719;52.124;6.226;2023-01-15T13:26:41;99919.63;;;5.79;92.20
76024;BME280;64719;52.124;6.226;2023-01-15T13:29:17;99915.31;;;5.78;92.37
76024;BME280;64719;52.124;6.226;2023-01-15T13:32:00;99928.75;;;5.78;92.74
76024;BME280;64719;52.124;6.226;2023-01-15T13:34:35;99927.06;;;5.83;92.47